Time;durP1;ratioP1;P1;durP2;ratioP2;P2;SDS_P1;SDS_P2;PMS_P1;PMS_P2;Temp;Humidity;BMP_temperature;BMP_pressure;BME280_temperature;BME280_humidity;BME280_pressure;Samples;Min_cycle;Max_cycle;Signal;HPM_P1;HPM_P2
2024/01/21 00:02:01;;;;;;;;;32.75;23.25;;;;;0.82;65.39;101738.56;5133154;27;47253;-81
2024/01/21 00:04:26;;;;;;;;;28.75;28.75;;;;;0.77;65.59;101719.34;5106003;27;45352;-82
2024/01/21 00:06:52;;;;;;;;;36.50;32.50;;;;;0.45;65.81;101664.31;5124161;27;45176;-86
2024/01/21 00:09:17;;;;;;;;;33.75;20.75;;;;;0.30;65.32;101636.34;5135558;27;45731;-80
2024/01/21 00:11:42;;;;;;;;;30.75;22.75;;;;;0.55;65.91;101673.94;5127746;27;45230;-79
2024/01/21 00:14:08;;;;;;;;;30.25;28.00;;;;;0.65;66.25;101685.28;5126523;27;46696;-80
2024/01/21 00:16:33;;;;;;;;;35.50;32.75;;;;;0.55;66.08;101661.72;5109911;27;45376;-78
2024/01/21 00:18:59;;;;;;;;;32.00;25.25;;;;;0.59;66.05;101658.22;5126187;27;45449;-81
2024/01/21 00:21:24;;;;;;;;;33.75;30.75;;;;;0.56;66.27;101663.47;5108894;27;45364;-79
2024/01/21 00:23:49;;;;;;;;;28.75;28.25;;;;;0.42;66.13;101659.94;5128645;27;45309;-84
2024/01/21 00:26:15;;;;;;;;;35.75;27.50;;;;;0.43;65.90;101651.22;5129041;27;45417;-82
2024/01/21 00:28:40;;;;;;;;;34.50;25.50;;;;;0.65;65.07;101669.56;5121581;27;45562;-81
2024/01/21 00:31:05;;;;;;;;;34.00;27.50;;;;;0.65;65.54;101695.75;5140215;27;55666;-81
2024/01/21 00:33:31;;;;;;;;;31.25;23.75;;;;;0.50;65.54;101668.66;5127108;27;45613;-84
2024/01/21 00:35:56;;;;;;;;;29.50;25.25;;;;;0.48;66.46;101686.13;5109040;27;46243;-81
2024/01/21 00:38:21;;;;;;;;;28.25;26.50;;;;;0.56;66.07;101681.78;5133480;27;46022;-81
2024/01/21 00:40:47;;;;;;;;;29.75;22.25;;;;;0.63;65.55;101698.38;5125043;27;45404;-79
2024/01/21 00:43:12;;;;;;;;;32.50;26.00;;;;;0.58;66.33;101693.13;5123152;27;45392;-80
2024/01/21 00:45:38;;;;;;;;;12.75;10.50;;;;;0.45;65.60;101670.41;5121578;27;45294;-82
2024/01/21 00:48:04;;;;;;;;;36.50;30.25;;;;;0.58;66.17;101690.50;5122470;27;45475;-83
2024/01/21 00:50:29;;;;;;;;;26.50;24.75;;;;;0.58;65.73;101677.41;5121631;27;45416;-81
2024/01/21 00:52:54;;;;;;;;;38.25;31.50;;;;;0.58;66.12;101687.91;5119417;27;45701;-79
2024/01/21 00:55:20;;;;;;;;;21.25;20.50;;;;;0.51;66.17;101669.53;5129312;27;45328;-80
2024/01/21 00:57:46;;;;;;;;;31.00;25.25;;;;;0.41;66.23;101652.97;5118765;27;46963;-80
2024/01/21 01:00:11;;;;;;;;;35.50;26.25;;;;;0.35;66.48;101668.63;5118615;27;45582;-79
2024/01/21 01:02:37;;;;;;;;;38.25;27.50;;;;;0.22;66.19;101648.53;5135583;27;45538;-87
2024/01/21 01:05:03;;;;;;;;;33.25;27.75;;;;;0.09;66.37;101634.53;5124915;27;45587;-92
2024/01/21 01:07:28;;;;;;;;;34.00;19.00;;;;;0.22;65.45;101643.28;5125430;27;45523;-81
2024/01/21 01:09:54;;;;;;;;;20.00;16.00;;;;;0.30;66.16;101670.38;5122821;27;45617;-86
2024/01/21 01:12:19;;;;;;;;;31.75;27.00;;;;;0.47;66.55;101692.22;5109091;27;45421;-89
2024/01/21 01:14:45;;;;;;;;;30.25;22.75;;;;;0.53;66.43;101715.81;5129268;27;45534;-80
2024/01/21 01:17:12;;;;;;;;;35.50;30.50;;;;;0.38;66.66;101673.88;5133392;27;47913;-89
2024/01/21 01:19:37;;;;;;;;;32.25;29.50;;;;;0.58;65.70;101693.13;5123161;27;45499;-93
2024/01/21 01:22:03;;;;;;;;;28.00;27.75;;;;;0.56;65.85;101705.34;5122066;27;45373;-81
2024/01/21 01:24:28;;;;;;;;;25.00;22.00;;;;;0.39;65.66;101669.50;5127701;27;45524;-82
2024/01/21 01:26:53;;;;;;;;;25.50;20.75;;;;;0.33;66.37;101649.44;5126699;27;46040;-79
2024/01/21 01:29:19;;;;;;;;;35.50;26.50;;;;;0.54;66.22;101688.75;5119087;27;58167;-83
2024/01/21 01:31:44;;;;;;;;;27.25;22.75;;;;;0.61;66.52;101696.63;5138141;27;45515;-79
2024/01/21 01:34:11;;;;;;;;;29.50;27.75;;;;;0.65;66.14;101712.34;5114830;27;45650;-82
2024/01/21 01:36:36;;;;;;;;;29.00;24.50;;;;;0.55;65.99;101677.44;5100040;27;46311;-81
2024/01/21 01:39:01;;;;;;;;;35.00;28.25;;;;;0.58;66.06;101666.94;5120666;27;45330;-79
2024/01/21 01:41:27;;;;;;;;;31.00;26.50;;;;;0.66;65.69;101680.06;5123484;27;45435;-82
2024/01/21 01:43:52;;;;;;;;;34.00;23.25;;;;;0.86;65.67;101698.41;5123809;27;45899;-88
2024/01/21 01:46:17;;;;;;;;;31.00;27.75;;;;;0.84;65.08;101700.16;5126828;27;60111;-81
2024/01/21 01:48:43;;;;;;;;;29.50;26.00;;;;;0.85;65.65;101701.91;5123225;27;45160;-85
2024/01/21 01:51:09;;;;;;;;;26.75;25.50;;;;;0.83;65.81;101694.06;5121722;27;45669;-86
2024/01/21 01:53:36;;;;;;;;;29.00;24.50;;;;;0.79;65.11;101696.69;5120539;27;45514;-84
2024/01/21 01:56:02;;;;;;;;;34.50;26.75;;;;;0.90;65.56;101705.41;5122018;27;45946;-85
2024/01/21 01:58:28;;;;;;;;;34.00;29.00;;;;;1.00;65.59;101707.16;5120777;27;45277;-89
2024/01/21 02:00:54;;;;;;;;;25.75;23.50;;;;;1.07;65.31;101715.91;5130212;27;45319;-83
2024/01/21 02:03:20;;;;;;;;;31.50;27.50;;;;;1.03;65.23;101712.41;5123173;27;45743;-86
2024/01/21 02:05:46;;;;;;;;;28.25;23.75;;;;;0.98;65.21;101701.06;5121375;27;46298;-88
2024/01/21 02:08:12;;;;;;;;;33.00;28.75;;;;;1.06;64.37;101712.41;5120373;27;45265;-84
2024/01/21 02:10:38;;;;;;;;;31.25;26.00;;;;;1.22;64.66;101722.91;5122763;27;45184;-80
2024/01/21 02:13:03;;;;;;;;;34.50;32.25;;;;;1.25;64.67;101715.03;5122451;27;45203;-89
2024/01/21 02:15:30;;;;;;;;;27.50;26.50;;;;;1.32;64.42;101717.66;5123044;27;45809;-82
2024/01/21 02:17:55;;;;;;;;;28.50;24.00;;;;;1.34;64.59;101728.16;5143720;27;45349;-89
2024/01/21 02:20:21;;;;;;;;;35.75;31.75;;;;;1.31;63.86;101708.06;5108569;27;45329;-80
2024/01/21 02:22:47;;;;;;;;;23.25;20.75;;;;;1.44;63.63;101706.31;5127415;27;45435;-89
2024/01/21 02:25:12;;;;;;;;;29.25;25.00;;;;;1.33;63.53;101701.06;5124785;27;45430;-85
2024/01/21 02:27:38;;;;;;;;;25.00;23.75;;;;;1.41;63.43;101714.16;5122891;27;45431;-88
2024/01/21 02:30:04;;;;;;;;;32.75;29.00;;;;;1.40;64.00;101710.66;5119777;27;45501;-81
2024/01/21 02:32:30;;;;;;;;;27.00;22.50;;;;;1.44;64.14;101708.94;5126558;27;45460;-81
2024/01/21 02:34:55;;;;;;;;;30.25;21.75;;;;;1.47;63.44;101709.78;5128137;27;45324;-85
2024/01/21 02:37:21;;;;;;;;;37.75;29.75;;;;;1.47;63.45;101708.91;5124437;27;45254;-82
2024/01/21 02:39:46;;;;;;;;;31.75;29.50;;;;;1.40;63.45;101694.94;5124955;27;45487;-85
2024/01/21 02:42:12;;;;;;;;;28.25;27.00;;;;;1.36;63.16;101676.59;5121934;27;45519;-88
2024/01/21 02:44:37;;;;;;;;;27.25;18.25;;;;;1.62;63.78;101716.75;5129155;27;45630;-80
2024/01/21 02:47:03;;;;;;;;;37.25;28.25;;;;;1.63;63.23;101710.63;5137102;27;45306;-82
2024/01/21 02:49:29;;;;;;;;;23.00;17.75;;;;;1.69;63.21;101712.38;5124502;27;45267;-84
2024/01/21 02:51:55;;;;;;;;;26.25;24.25;;;;;1.80;62.86;101717.59;5125646;27;45693;-86
2024/01/21 02:54:21;;;;;;;;;31.50;24.75;;;;;1.80;62.97;101712.34;5137245;27;46273;-83
2024/01/21 02:56:46;;;;;;;;;21.00;20.50;;;;;1.75;62.25;101707.13;5134155;27;45344;-83
2024/01/21 02:59:12;;;;;;;;;24.75;18.25;;;;;1.50;62.27;101666.09;5141029;27;45348;-83
2024/01/21 03:01:37;;;;;;;;;27.00;23.00;;;;;1.51;62.61;101678.31;5125076;27;45426;-81
2024/01/21 03:04:02;;;;;;;;;33.50;26.50;;;;;1.54;62.57;101683.56;5125626;27;46476;-81
2024/01/21 03:06:28;;;;;;;;;19.50;18.75;;;;;1.48;63.00;101671.34;5122189;27;46809;-80
2024/01/21 03:08:53;;;;;;;;;32.25;27.00;;;;;1.34;63.62;101658.25;5121917;27;45427;-85
2024/01/21 03:11:18;;;;;;;;;26.75;19.00;;;;;1.27;63.16;101640.78;5121356;27;45329;-85
2024/01/21 03:13:44;;;;;;;;;33.25;24.25;;;;;1.38;63.37;101672.22;5119183;27;45472;-83
2024/01/21 03:16:11;;;;;;;;;29.25;27.00;;;;;1.35;63.36;101652.13;5121854;27;45323;-83
2024/01/21 03:18:38;;;;;;;;;18.75;17.25;;;;;1.37;63.13;101657.38;5121072;27;45492;-83
2024/01/21 03:21:05;;;;;;;;;20.75;18.25;;;;;1.26;63.29;101656.50;5122274;27;45156;-82
2024/01/21 03:23:31;;;;;;;;;38.50;22.75;;;;;1.26;63.27;101653.88;5122516;27;46055;-81
2024/01/21 03:25:56;;;;;;;;;32.50;23.50;;;;;0.97;63.60;101607.63;5122743;27;45328;-84
2024/01/21 03:28:21;;;;;;;;;26.25;26.25;;;;;1.28;63.64;101660.00;5122178;27;45290;-84
2024/01/21 03:30:47;;;;;;;;;42.00;30.75;;;;;1.22;63.96;101649.53;5133762;27;45593;-83
2024/01/21 03:33:12;;;;;;;;;27.50;25.75;;;;;1.07;64.11;101646.06;5121549;27;45395;-81
2024/01/21 03:35:37;;;;;;;;;27.25;23.50;;;;;1.30;63.94;101673.97;5132599;27;45393;-84
2024/01/21 03:38:03;;;;;;;;;25.25;21.25;;;;;1.20;62.97;101648.66;5141531;27;45312;-82
2024/01/21 03:40:28;;;;;;;;;24.00;22.75;;;;;1.55;62.59;101688.78;5141518;27;45254;-79
2024/01/21 03:42:53;;;;;;;;;32.75;28.50;;;;;1.55;62.44;101690.53;5141779;27;45438;-89
2024/01/21 03:45:19;;;;;;;;;27.00;22.00;;;;;1.53;62.02;101666.09;5133133;27;45406;-85
2024/01/21 03:47:44;;;;;;;;;26.75;23.00;;;;;1.51;62.49;101647.75;5133999;27;45352;-84
2024/01/21 03:50:09;;;;;;;;;34.00;21.75;;;;;1.77;62.11;101694.88;5142932;27;45258;-89
2024/01/21 03:52:35;;;;;;;;;24.00;22.50;;;;;1.83;60.83;101696.63;5141059;27;45349;-87
2024/01/21 03:55:01;;;;;;;;;17.25;11.50;;;;;1.78;60.99;101679.13;5141289;27;45321;-81
2024/01/21 03:57:27;;;;;;;;;25.25;20.00;;;;;1.87;61.13;101678.25;5142157;27;45289;-79
2024/01/21 03:59:52;;;;;;;;;22.75;18.75;;;;;1.81;60.47;101664.25;5141146;27;45545;-83
2024/01/21 04:02:19;;;;;;;;;21.25;20.25;;;;;1.87;60.00;101672.13;5135713;27;45396;-84
2024/01/21 04:04:45;;;;;;;;;21.25;18.75;;;;;2.02;59.33;101677.31;5139285;27;45415;-78
2024/01/21 04:07:10;;;;;;;;;20.25;18.25;;;;;2.10;59.20;101685.19;5127798;27;45437;-85
2024/01/21 04:09:35;;;;;;;;;16.50;15.75;;;;;2.17;58.62;101677.25;5125681;27;45521;-83
2024/01/21 04:12:01;;;;;;;;;13.00;11.25;;;;;2.27;58.40;101683.34;5127098;27;45352;-87
2024/01/21 04:14:26;;;;;;;;;25.25;18.75;;;;;2.21;58.21;101657.97;5126412;27;45354;-83
2024/01/21 04:16:51;;;;;;;;;18.25;17.25;;;;;2.46;58.41;101668.34;5134946;27;45438;-88
2024/01/21 04:19:17;;;;;;;;;17.75;17.25;;;;;2.43;57.26;101666.63;5129878;27;46123;-86
2024/01/21 04:21:43;;;;;;;;;28.50;21.00;;;;;2.15;57.56;101625.66;5120237;27;46599;-82
2024/01/21 04:24:08;;;;;;;;;25.25;15.75;;;;;2.40;57.62;101663.16;5119884;27;45423;-84
2024/01/21 04:26:34;;;;;;;;;20.50;16.50;;;;;2.33;57.76;101651.81;5131696;27;45471;-83
2024/01/21 04:28:59;;;;;;;;;14.75;14.75;;;;;2.25;57.58;101628.25;5122310;27;45529;-85
2024/01/21 04:31:24;;;;;;;;;17.75;13.75;;;;;2.32;57.10;101648.31;5127463;27;45232;-83
2024/01/21 04:33:50;;;;;;;;;21.75;17.50;;;;;2.17;57.58;101619.53;5124611;27;45444;-79
2024/01/21 04:36:18;;;;;;;;;22.00;13.00;;;;;2.26;57.47;101614.22;5127421;27;45548;-80
2024/01/21 04:38:43;;;;;;;;;14.75;12.50;;;;;2.03;57.04;101574.97;5122602;27;45499;-83
2024/01/21 04:41:08;;;;;;;;;13.50;13.50;;;;;2.01;56.97;101552.25;5121278;27;46299;-80
2024/01/21 04:43:34;;;;;;;;;17.50;14.75;;;;;2.26;57.33;101598.47;5120100;27;45415;-80
2024/01/21 04:45:59;;;;;;;;;19.75;14.75;;;;;2.20;57.33;101587.13;5124362;27;45353;-82
2024/01/21 04:48:24;;;;;;;;;20.75;16.75;;;;;2.26;57.15;101621.22;5125461;27;45437;-79
2024/01/21 04:50:50;;;;;;;;;26.33;19.00;;;;;2.32;57.34;101627.31;5122199;27;45426;-78
2024/01/21 04:53:15;;;;;;;;;24.25;14.75;;;;;2.30;56.64;101628.19;5121720;27;45283;-77
2024/01/21 04:55:40;;;;;;;;;18.50;13.25;;;;;2.18;56.67;101591.53;5118977;27;45266;-79
2024/01/21 04:58:06;;;;;;;;;14.75;12.50;;;;;2.54;56.44;101628.06;5119279;27;45251;-82
2024/01/21 05:00:31;;;;;;;;;19.25;12.00;;;;;2.71;56.18;101638.44;5117523;27;46761;-82
2024/01/21 05:02:56;;;;;;;;;18.75;13.25;;;;;2.78;56.20;101642.78;5134425;27;45340;-81
2024/01/21 05:05:22;;;;;;;;;18.75;14.25;;;;;2.78;55.63;101623.53;5120007;27;45550;-82
2024/01/21 05:07:47;;;;;;;;;18.75;16.25;;;;;2.74;55.45;101599.03;5103716;27;45564;-81
2024/01/21 05:10:13;;;;;;;;;16.00;14.00;;;;;2.93;55.12;101612.88;5116970;27;46056;-78
2024/01/21 05:12:38;;;;;;;;;26.50;15.50;;;;;2.95;55.18;101621.63;5117976;27;45496;-78
2024/01/21 05:15:04;;;;;;;;;8.00;4.25;;;;;2.99;55.14;101627.72;5119727;27;45469;-81
2024/01/21 05:17:30;;;;;;;;;17.75;15.25;;;;;3.12;55.72;101629.34;5139601;27;45486;-79
2024/01/21 05:19:55;;;;;;;;;15.50;12.25;;;;;3.12;56.11;101608.31;5127519;27;45494;-85
2024/01/21 05:22:20;;;;;;;;;20.75;14.75;;;;;3.07;56.41;101608.38;5123621;27;45424;-90
2024/01/21 05:24:46;;;;;;;;;13.50;11.75;;;;;2.95;56.28;101596.22;5124727;27;45424;-87
2024/01/21 05:27:11;;;;;;;;;15.00;11.00;;;;;2.91;56.97;101605.03;5124583;27;44811;-82
2024/01/21 05:29:36;;;;;;;;;21.75;17.00;;;;;2.89;57.60;101606.78;5136073;27;45355;-89
2024/01/21 05:32:02;;;;;;;;;17.25;9.00;;;;;2.90;57.73;101607.66;5125905;27;45290;-80
2024/01/21 05:34:27;;;;;;;;;20.75;15.50;;;;;2.65;57.91;101549.19;5136633;27;45226;-82
2024/01/21 05:36:52;;;;;;;;;15.25;15.25;;;;;3.01;57.65;101581.28;5147665;27;45179;-86
2024/01/21 05:39:18;;;;;;;;;12.25;12.25;;;;;3.02;57.94;101577.78;5143735;27;46050;-87
2024/01/21 05:42:08;;;;;;;;;17.50;13.75;;;;;2.95;58.13;101564.69;5141141;27;45263;-81
2024/01/21 05:44:34;;;;;;;;;17.50;14.25;;;;;3.06;58.29;101592.63;5128267;27;45399;-79
2024/01/21 05:46:59;;;;;;;;;13.25;12.25;;;;;3.12;58.34;101593.44;5139484;27;45327;-89
2024/01/21 05:49:25;;;;;;;;;13.25;13.25;;;;;3.22;57.89;101599.47;5146684;27;45305;-88
2024/01/21 05:51:51;;;;;;;;;18.00;14.00;;;;;3.26;57.63;101606.47;5147724;27;45257;-85
2024/01/21 05:54:17;;;;;;;;;9.25;9.25;;;;;3.17;57.82;101572.38;5146852;27;45179;-80
2024/01/21 05:56:43;;;;;;;;;18.75;12.75;;;;;3.37;57.91;101572.16;5147058;27;45538;-82
2024/01/21 05:59:08;;;;;;;;;14.25;12.00;;;;;3.27;57.88;101571.41;5145627;27;45343;-83
2024/01/21 06:01:33;;;;;;;;;13.50;11.75;;;;;3.28;58.08;101603.81;5142918;27;45274;-80
2024/01/21 06:03:59;;;;;;;;;21.00;14.75;;;;;3.24;58.06;101605.59;5128155;27;45582;-82
2024/01/21 06:06:24;;;;;;;;;14.00;12.25;;;;;3.25;58.60;101589.81;5125018;27;45309;-82
2024/01/21 06:08:50;;;;;;;;;18.50;15.00;;;;;3.27;58.74;101587.19;5124177;27;45396;-83
2024/01/21 06:11:15;;;;;;;;;12.00;12.00;;;;;3.29;58.47;101593.28;5124696;27;45470;-85
2024/01/21 06:13:41;;;;;;;;;17.25;12.75;;;;;3.34;59.81;101607.25;5121845;27;45749;-81
2024/01/21 06:16:06;;;;;;;;;19.50;17.25;;;;;3.36;59.81;101602.84;5124727;27;45326;-84
2024/01/21 06:18:32;;;;;;;;;16.00;14.00;;;;;3.18;59.62;101566.22;5125574;27;45541;-80
2024/01/21 06:20:57;;;;;;;;;15.00;11.50;;;;;3.29;59.60;101606.44;5124065;27;45587;-80
2024/01/21 06:23:23;;;;;;;;;15.00;14.00;;;;;3.43;60.11;101608.91;5122932;27;45314;-83
2024/01/21 06:25:49;;;;;;;;;14.00;13.50;;;;;3.40;60.03;101604.56;5133236;27;45510;-78
2024/01/21 06:28:14;;;;;;;;;12.75;11.25;;;;;3.51;59.97;101605.28;5122492;27;45848;-80
2024/01/21 06:30:39;;;;;;;;;13.25;9.00;;;;;3.56;59.71;101594.75;5136512;27;45232;-81
2024/01/21 06:33:05;;;;;;;;;12.75;12.00;;;;;3.54;59.68;101612.31;5134031;27;45476;-82
2024/01/21 06:35:30;;;;;;;;;18.75;14.25;;;;;3.54;59.97;101615.81;5115070;27;45718;-81
2024/01/21 06:37:56;;;;;;;;;19.75;12.50;;;;;3.59;60.21;101609.63;5112382;27;45257;-80
2024/01/21 06:40:22;;;;;;;;;15.50;11.25;;;;;3.56;60.29;101592.13;5120245;27;45392;-79
2024/01/21 06:42:47;;;;;;;;;13.25;13.25;;;;;3.47;60.59;101590.44;5121372;27;45323;-80
2024/01/21 06:45:13;;;;;;;;;7.75;7.75;;;;;3.57;60.92;101619.28;5118943;27;45452;-79
2024/01/21 06:47:42;;;;;;;;;13.00;11.75;;;;;3.30;61.21;101567.84;5119267;27;45179;-78
2024/01/21 06:50:11;;;;;;;;;16.25;13.50;;;;;3.57;61.08;101603.50;5117803;27;45506;-79
2024/01/21 06:52:36;;;;;;;;;10.75;10.75;;;;;3.58;61.34;101608.75;5100866;27;45395;-81
2024/01/21 06:55:03;;;;;;;;;16.50;15.00;;;;;3.34;61.13;101588.84;5124541;27;45650;-79
2024/01/21 06:57:28;;;;;;;;;13.00;11.50;;;;;3.54;62.19;101615.81;5129267;27;46332;-79
2024/01/21 06:59:54;;;;;;;;;18.25;15.00;;;;;3.57;61.58;101621.91;5120909;27;45222;-79
2024/01/21 07:02:19;;;;;;;;;7.50;7.50;;;;;3.42;62.06;101609.81;5123306;27;45745;-80
2024/01/21 07:04:45;;;;;;;;;12.25;11.50;;;;;3.14;62.40;101557.50;5117158;27;45515;-79
2024/01/21 07:07:11;;;;;;;;;15.75;12.25;;;;;3.51;62.27;101628.97;5119671;27;47445;-82
2024/01/21 07:09:41;;;;;;;;;15.75;13.50;;;;;3.37;61.94;101603.69;5114614;27;45665;-81
2024/01/21 07:12:06;;;;;;;;;12.25;10.25;;;;;3.45;62.34;101622.91;5120092;27;45639;-80
2024/01/21 07:14:34;;;;;;;;;17.50;16.25;;;;;3.26;62.35;101601.22;5102016;27;45529;-83
2024/01/21 07:17:01;;;;;;;;;14.75;12.75;;;;;3.73;61.89;101691.88;5111015;27;48477;-78
2024/01/21 07:19:26;;;;;;;;;12.50;11.75;;;;;3.54;62.22;101660.53;5115932;27;46150;-81
2024/01/21 07:21:51;;;;;;;;;19.50;16.25;;;;;3.79;61.89;101683.94;5102420;27;45502;-80
2024/01/21 07:24:17;;;;;;;;;19.00;16.50;;;;;3.74;62.34;101683.09;5105986;27;45554;-83
2024/01/21 07:26:42;;;;;;;;;11.00;11.00;;;;;3.23;62.40;101606.47;5103254;27;47497;-82
2024/01/21 07:29:08;;;;;;;;;14.25;12.00;;;;;3.58;62.68;101657.84;5103100;27;45970;-79
2024/01/21 07:31:33;;;;;;;;;18.25;15.00;;;;;3.67;62.80;101686.69;5140542;27;45438;-80
2024/01/21 07:33:58;;;;;;;;;15.75;15.00;;;;;3.28;63.30;101627.47;5136163;27;45548;-79
2024/01/21 07:36:24;;;;;;;;;17.50;13.00;;;;;3.76;63.00;101682.19;5119212;27;45427;-80
2024/01/21 07:38:49;;;;;;;;;17.25;14.25;;;;;3.73;62.97;101652.41;5101531;27;45345;-83
2024/01/21 07:41:15;;;;;;;;;15.75;12.75;;;;;3.58;63.04;101639.44;5120829;27;45372;-82
2024/01/21 07:43:40;;;;;;;;;17.00;12.25;;;;;3.67;63.12;101660.41;5135940;27;45547;-84
2024/01/21 07:46:06;;;;;;;;;19.00;12.00;;;;;3.68;63.23;101689.31;5138381;27;45529;-82
2024/01/21 07:48:31;;;;;;;;;20.50;12.75;;;;;3.69;63.33;101700.72;5124365;27;45262;-82
2024/01/21 07:50:57;;;;;;;;;16.75;12.75;;;;;3.62;63.58;101689.34;5105539;27;45294;-82
2024/01/21 07:53:22;;;;;;;;;22.25;12.00;;;;;3.58;63.32;101679.75;5123564;27;45561;-86
2024/01/21 07:55:49;;;;;;;;;13.00;13.00;;;;;3.78;63.59;101705.88;5125416;27;45166;-83
2024/01/21 07:58:15;;;;;;;;;13.75;12.00;;;;;3.86;63.34;101717.19;5129577;27;45293;-84
2024/01/21 08:00:42;;;;;;;;;12.75;8.00;;;;;3.95;63.16;101713.59;5120725;27;46461;-79
2024/01/21 08:03:08;;;;;;;;;19.50;13.00;;;;;3.99;63.51;101721.44;5121274;27;45298;-82
2024/01/21 08:05:33;;;;;;;;;13.00;11.50;;;;;3.95;63.40;101725.00;5126753;27;46241;-83
2024/01/21 08:07:59;;;;;;;;;15.75;15.00;;;;;3.99;63.19;101718.78;5125677;27;49214;-88
2024/01/21 08:10:24;;;;;;;;;12.50;12.50;;;;;3.68;63.31;101668.28;5135128;27;45320;-82
2024/01/21 08:12:50;;;;;;;;;11.75;11.25;;;;;4.05;62.63;101720.50;5104937;27;45654;-85
2024/01/21 08:15:15;;;;;;;;;13.00;13.00;;;;;4.09;62.69;101723.06;5129805;27;45612;-83
2024/01/21 08:17:40;;;;;;;;;8.00;8.00;;;;;4.12;62.62;101707.25;5133508;27;45236;-87
2024/01/21 08:20:06;;;;;;;;;11.75;9.75;;;;;4.18;62.57;101719.47;5114998;27;45256;-85
2024/01/21 08:22:33;;;;;;;;;13.00;12.25;;;;;4.19;62.49;101712.44;5133960;27;45588;-80
2024/01/21 08:24:58;;;;;;;;;16.00;12.25;;;;;4.11;62.95;101710.75;5142641;27;45652;-83
2024/01/21 08:27:24;;;;;;;;;11.25;11.25;;;;;4.06;63.18;101712.59;5139586;27;45307;-85
2024/01/21 08:29:49;;;;;;;;;16.25;14.25;;;;;4.08;63.44;101721.34;5132271;27;45311;-86
2024/01/21 08:32:15;;;;;;;;;20.00;15.00;;;;;4.03;62.57;101717.84;5124447;27;45467;-87
2024/01/21 08:34:41;;;;;;;;;12.25;11.75;;;;;4.19;63.18;101749.31;5123720;27;45506;-84
2024/01/21 08:37:06;;;;;;;;;13.25;12.50;;;;;4.17;62.99;101745.78;5134091;27;45429;-88
2024/01/21 08:39:31;;;;;;;;;10.75;9.75;;;;;4.23;62.65;101766.81;5120269;27;45464;-82
2024/01/21 08:41:56;;;;;;;;;17.00;12.00;;;;;4.34;63.47;101786.00;5118743;27;45358;-85
2024/01/21 08:44:22;;;;;;;;;14.50;13.25;;;;;4.41;62.92;101792.91;5119060;27;45452;-81
2024/01/21 08:46:47;;;;;;;;;15.50;12.25;;;;;4.53;62.81;101803.31;5118941;27;45368;-84
2024/01/21 08:49:13;;;;;;;;;18.00;16.75;;;;;4.56;62.77;101798.03;5120488;27;45511;-81
2024/01/21 08:51:39;;;;;;;;;12.50;12.00;;;;;4.65;62.98;101807.56;5133479;27;45630;-85
2024/01/21 08:54:04;;;;;;;;;15.00;10.75;;;;;4.66;62.54;101791.75;5128799;27;45524;-80
2024/01/21 08:56:32;;;;;;;;;16.00;13.25;;;;;4.82;62.39;101799.44;5129007;27;45470;-79
2024/01/21 08:58:57;;;;;;;;;10.00;10.00;;;;;4.73;63.28;101774.97;5127466;27;45326;-80
2024/01/21 09:01:22;;;;;;;;;13.75;12.25;;;;;4.73;63.30;101759.16;5117875;27;46610;-79
2024/01/21 09:03:48;;;;;;;;;17.00;17.00;;;;;4.85;62.58;101794.16;5116187;27;45598;-80
2024/01/21 09:06:13;;;;;;;;;16.00;13.50;;;;;4.82;62.76;101792.44;5115686;27;45636;-82
2024/01/21 09:08:38;;;;;;;;;13.00;11.75;;;;;4.88;62.38;101792.34;5120571;27;45520;-79
2024/01/21 09:11:05;;;;;;;;;13.50;10.00;;;;;4.86;63.19;101786.22;5130601;27;45568;-81
2024/01/21 09:13:30;;;;;;;;;16.75;11.25;;;;;4.95;63.11;101785.25;5122877;27;46063;-84
2024/01/21 09:15:56;;;;;;;;;17.25;13.00;;;;;4.87;63.53;101768.63;5108254;27;45667;-82
2024/01/21 09:18:22;;;;;;;;;13.00;13.00;;;;;4.88;62.84;101741.38;5113585;27;45456;-82
2024/01/21 09:20:47;;;;;;;;;11.50;11.50;;;;;5.04;63.70;101782.44;5105691;27;45299;-79
2024/01/21 09:23:13;;;;;;;;;14.00;13.50;;;;;5.03;62.92;101788.63;5143556;27;46429;-84
2024/01/21 09:25:39;;;;;;;;;17.50;15.50;;;;;5.08;63.64;101791.19;5139080;27;45350;-82
2024/01/21 09:28:05;;;;;;;;;14.75;13.75;;;;;5.14;63.44;101805.16;5129190;27;45459;-79
2024/01/21 09:30:33;;;;;;;;;14.00;12.50;;;;;5.23;63.06;101797.13;5149727;27;45544;-86
2024/01/21 09:32:59;;;;;;;;;17.50;11.00;;;;;5.26;62.54;101799.72;5139324;27;45162;-90
2024/01/21 09:35:24;;;;;;;;;10.50;10.25;;;;;5.49;61.83;101809.91;5138644;27;45405;-81
2024/01/21 09:37:49;;;;;;;;;14.00;11.25;;;;;5.48;62.67;101786.19;5143535;27;45327;-84
2024/01/21 09:40:15;;;;;;;;;13.50;4.00;;;;;5.28;62.95;101746.94;5136129;27;46496;-83
2024/01/21 09:42:40;;;;;;;;;14.75;11.25;;;;;5.31;62.76;101770.63;5128303;27;45530;-80
2024/01/21 09:45:09;;;;;;;;;10.25;10.25;;;;;5.36;63.33;101781.13;5119589;27;45518;-81
2024/01/21 09:47:36;;;;;;;;;13.50;12.50;;;;;5.32;63.18;101785.53;5129437;27;45507;-82
2024/01/21 09:50:02;;;;;;;;;11.75;11.75;;;;;5.30;63.96;101788.22;5137433;27;47074;-79
2024/01/21 09:52:28;;;;;;;;;16.75;12.75;;;;;5.37;63.75;101788.13;5137471;27;47018;-77
2024/01/21 09:54:54;;;;;;;;;12.50;11.75;;;;;5.42;63.18;101796.84;5127288;27;45448;-80
2024/01/21 09:57:20;;;;;;;;;15.50;11.75;;;;;5.42;63.89;101802.09;5123638;27;45389;-87
2024/01/21 09:59:46;;;;;;;;;11.25;11.25;;;;;5.37;62.86;101810.09;5145354;27;45591;-83
2024/01/21 10:02:16;;;;;;;;;16.00;12.25;;;;;5.25;63.56;101795.34;5115317;27;46882;-86
2024/01/21 10:04:45;;;;;;;;;14.50;13.50;;;;;5.46;63.38;101822.25;5143214;27;45279;-80
2024/01/21 10:07:12;;;;;;;;;14.50;14.50;;;;;5.33;63.64;101797.84;5130368;27;45405;-77
2024/01/21 10:09:37;;;;;;;;;5.00;5.00;;;;;5.51;63.33;101828.38;5147086;27;45464;-78
2024/01/21 10:12:04;;;;;;;;;12.75;11.25;;;;;5.50;63.86;101832.78;5138821;27;45425;-79
2024/01/21 10:14:31;;;;;;;;;13.50;13.50;;;;;5.47;63.85;101832.81;5131628;27;45413;-91
2024/01/21 10:16:58;;;;;;;;;16.50;12.50;;;;;5.41;64.54;101827.63;5130467;27;45215;-81
2024/01/21 10:19:31;;;;;;;;;18.25;13.00;;;;;5.42;63.89;101841.69;5141279;27;45522;-82
2024/01/21 10:22:09;;;;;;;;;13.75;13.75;;;;;5.41;63.74;101835.53;5131004;27;45949;-80
2024/01/21 10:24:37;;;;;;;;;13.25;12.75;;;;;5.32;63.59;101814.56;5127463;27;45370;-82
2024/01/21 10:27:05;;;;;;;;;14.25;13.75;;;;;5.26;64.59;101797.06;5137472;27;45437;-82
2024/01/21 10:29:30;;;;;;;;;21.00;14.75;;;;;5.30;64.69;101808.44;5125673;27;45455;-78
2024/01/21 10:31:56;;;;;;;;;13.75;11.50;;;;;5.32;64.36;101812.78;5123130;27;45299;-83
2024/01/21 10:34:22;;;;;;;;;9.00;9.00;;;;;5.35;64.93;101789.94;5125053;27;45369;-81
2024/01/21 10:36:51;;;;;;;;;13.25;10.75;;;;;5.33;65.35;101785.50;5135564;27;45510;-83
2024/01/21 10:39:20;;;;;;;;;11.50;10.25;;;;;5.35;64.40;101764.41;5125941;27;45400;-82
2024/01/21 10:41:46;;;;;;;;;13.50;11.25;;;;;5.37;64.82;101761.75;5129637;27;46484;-83
2024/01/21 10:44:12;;;;;;;;;13.00;13.00;;;;;5.42;64.77;101752.00;5127739;27;45504;-81
2024/01/21 10:46:39;;;;;;;;;14.75;13.00;;;;;5.43;65.57;101740.53;5121535;27;46402;-82
2024/01/21 10:49:05;;;;;;;;;13.75;13.25;;;;;5.51;65.03;101738.66;5105356;27;45198;-82
2024/01/21 10:51:31;;;;;;;;;13.75;12.75;;;;;5.49;65.10;101745.72;5130512;27;46025;-82
2024/01/21 10:53:59;;;;;;;;;15.00;15.00;;;;;5.47;66.25;101737.84;5127486;27;45451;-80
2024/01/21 10:56:25;;;;;;;;;12.50;11.50;;;;;5.31;66.84;101724.00;5120726;27;45394;-84
2024/01/21 10:58:52;;;;;;;;;12.25;12.25;;;;;5.34;66.74;101709.91;5121398;27;45517;-81
2024/01/21 11:01:19;;;;;;;;;16.50;12.75;;;;;5.50;66.45;101740.41;5124243;27;46249;-81
2024/01/21 11:03:48;;;;;;;;;8.50;8.50;;;;;5.54;67.70;101741.22;5130952;27;45349;-79
2024/01/21 11:06:13;;;;;;;;;12.50;12.50;;;;;5.52;68.36;101725.44;5125017;27;45474;-84
2024/01/21 11:08:43;;;;;;;;;21.50;13.50;;;;;5.64;67.52;101740.19;5134572;27;45834;-78
2024/01/21 11:11:08;;;;;;;;;16.00;14.00;;;;;5.79;68.34;101741.69;5119200;27;45646;-83